createdAt,value
2022-12-22T00:02:17.118Z,7.80
2022-12-22T00:04:44.491Z,7.90
2022-12-22T00:07:11.195Z,7.80
2022-12-22T00:09:37.888Z,7.90
2022-12-22T00:12:04.802Z,7.90
2022-12-22T00:14:31.570Z,7.90
2022-12-22T00:17:02.018Z,7.90
2022-12-22T00:19:28.708Z,7.90
2022-12-22T00:21:55.444Z,7.90
2022-12-22T00:24:25.507Z,7.90
2022-12-22T00:26:52.194Z,7.80
2022-12-22T00:29:18.860Z,7.80
2022-12-22T00:31:45.608Z,7.80
2022-12-22T00:34:16.385Z,7.80
2022-12-22T00:36:43.389Z,7.80
2022-12-22T00:39:13.345Z,7.80
2022-12-22T00:41:40.072Z,7.80
2022-12-22T00:44:06.792Z,7.80
2022-12-22T00:46:33.957Z,7.80
2022-12-22T00:49:00.701Z,7.80
2022-12-22T00:51:27.438Z,7.80
2022-12-22T00:53:54.140Z,7.90
2022-12-22T00:56:20.837Z,7.90
2022-12-22T00:58:47.709Z,7.90
2022-12-22T01:01:14.532Z,7.90
2022-12-22T01:03:41.385Z,7.90
2022-12-22T01:06:09.060Z,7.90
2022-12-22T01:08:35.842Z,8.00
2022-12-22T01:11:02.675Z,8.00
2022-12-22T01:13:29.403Z,8.00
2022-12-22T01:15:56.252Z,7.90
2022-12-22T01:18:22.967Z,7.90
2022-12-22T01:20:49.894Z,7.90
2022-12-22T01:23:16.587Z,7.90
2022-12-22T01:25:43.268Z,7.90
2022-12-22T01:28:16.298Z,8.00
2022-12-22T01:30:43.389Z,8.00
2022-12-22T01:33:12.205Z,7.90
2022-12-22T01:35:39.000Z,7.90
2022-12-22T01:38:05.710Z,7.90
2022-12-22T01:40:32.449Z,7.90
2022-12-22T01:42:59.261Z,7.80
2022-12-22T01:45:31.341Z,7.80
2022-12-22T01:47:58.101Z,7.80
2022-12-22T01:50:30.349Z,7.80
2022-12-22T01:52:57.067Z,7.70
2022-12-22T01:55:24.642Z,7.70
2022-12-22T01:57:51.343Z,7.80
2022-12-22T02:00:18.182Z,7.80
2022-12-22T02:02:45.022Z,7.70
2022-12-22T02:05:12.732Z,7.70
2022-12-22T02:08:08.695Z,7.70
2022-12-22T02:10:58.941Z,7.70
2022-12-22T02:13:44.596Z,7.60
2022-12-22T02:16:18.379Z,7.60
2022-12-22T02:19:43.727Z,7.60
2022-12-22T02:22:30.309Z,7.60
2022-12-22T02:25:22.623Z,7.50
2022-12-22T02:27:49.550Z,7.50
2022-12-22T02:30:16.287Z,7.50
2022-12-22T02:32:43.867Z,7.50
2022-12-22T02:35:15.067Z,7.50
2022-12-22T02:37:51.886Z,7.50
2022-12-22T02:40:47.497Z,7.50
2022-12-22T02:43:25.990Z,7.40
2022-12-22T02:46:10.903Z,7.40
2022-12-22T02:48:57.601Z,7.40
2022-12-22T02:51:25.714Z,7.50
2022-12-22T02:53:52.867Z,7.40
2022-12-22T02:56:19.548Z,7.40
2022-12-22T02:58:46.493Z,7.40
2022-12-22T03:01:13.250Z,7.40
2022-12-22T03:03:40.086Z,7.40
2022-12-22T03:06:07.161Z,7.40
2022-12-22T03:08:33.904Z,7.40
2022-12-22T03:11:00.587Z,7.30
2022-12-22T03:13:27.271Z,7.30
2022-12-22T03:15:54.066Z,7.30
2022-12-22T03:18:20.813Z,7.30
2022-12-22T03:20:47.522Z,7.30
2022-12-22T03:23:14.264Z,7.30
2022-12-22T03:25:41.039Z,7.30
2022-12-22T03:28:08.313Z,7.40
2022-12-22T03:30:35.254Z,7.40
2022-12-22T03:33:02.104Z,7.40
2022-12-22T03:35:28.804Z,7.40
2022-12-22T03:37:55.500Z,7.50
2022-12-22T03:40:22.192Z,7.50
2022-12-22T03:42:48.876Z,7.50
2022-12-22T03:45:15.648Z,7.50
2022-12-22T03:47:42.340Z,7.50
2022-12-22T03:50:09.310Z,7.60
2022-12-22T03:52:36.066Z,7.60
2022-12-22T03:55:02.788Z,7.70
2022-12-22T03:57:29.495Z,7.80
2022-12-22T03:59:56.238Z,7.90
2022-12-22T04:02:23.113Z,8.00
2022-12-22T04:04:49.891Z,8.00
2022-12-22T04:07:16.582Z,8.10
2022-12-22T04:09:43.280Z,8.20
2022-12-22T04:12:09.956Z,8.20
2022-12-22T04:14:36.730Z,8.30
2022-12-22T04:17:04.280Z,8.30
2022-12-22T04:19:31.251Z,8.30
2022-12-22T04:21:58.163Z,8.40
2022-12-22T04:24:24.903Z,8.40
2022-12-22T04:26:52.531Z,8.40
2022-12-22T04:29:19.219Z,8.50
2022-12-22T04:31:45.994Z,8.50
2022-12-22T04:34:12.712Z,8.50
2022-12-22T04:36:39.423Z,8.50
2022-12-22T04:39:06.115Z,8.50
2022-12-22T04:41:32.830Z,8.50
2022-12-22T04:43:59.522Z,8.50
2022-12-22T04:46:26.334Z,8.50
2022-12-22T04:48:59.370Z,8.50
2022-12-22T04:51:26.943Z,8.50
2022-12-22T04:53:53.649Z,8.50
2022-12-22T04:56:20.419Z,8.50
2022-12-22T04:58:47.102Z,8.40
2022-12-22T05:01:15.726Z,8.40
2022-12-22T05:03:42.626Z,8.50
2022-12-22T05:06:09.717Z,8.40
2022-12-22T05:08:36.478Z,8.40
2022-12-22T05:11:03.179Z,8.40
2022-12-22T05:13:30.863Z,8.40
2022-12-22T05:16:12.812Z,8.40
2022-12-22T05:18:40.098Z,8.30
2022-12-22T05:21:08.278Z,8.30
2022-12-22T05:23:34.945Z,8.30
2022-12-22T05:26:01.658Z,8.40
2022-12-22T05:28:28.334Z,8.30
2022-12-22T05:30:55.211Z,8.30
2022-12-22T05:33:21.972Z,8.30
2022-12-22T05:35:48.707Z,8.20
2022-12-22T05:38:15.391Z,8.20
2022-12-22T05:40:42.122Z,8.20
2022-12-22T05:43:08.828Z,8.10
2022-12-22T05:45:35.537Z,8.10
2022-12-22T05:48:02.305Z,8.10
2022-12-22T05:50:29.027Z,8.00
2022-12-22T05:52:55.690Z,7.90
2022-12-22T05:55:22.410Z,7.90
2022-12-22T05:57:49.164Z,7.80
2022-12-22T06:00:16.696Z,7.70
2022-12-22T06:02:43.838Z,7.70
2022-12-22T06:05:11.079Z,7.60
2022-12-22T06:07:37.972Z,7.60
2022-12-22T06:10:11.659Z,7.50
2022-12-22T06:12:39.946Z,7.50
2022-12-22T06:15:07.478Z,7.50
2022-12-22T06:17:36.774Z,7.40
2022-12-22T06:20:09.272Z,7.30
2022-12-22T06:22:35.944Z,7.30
2022-12-22T06:25:02.654Z,7.20
2022-12-22T06:27:29.320Z,7.20
2022-12-22T06:29:56.024Z,7.20
2022-12-22T06:32:22.708Z,7.20
2022-12-22T06:34:49.400Z,7.10
2022-12-22T06:37:16.068Z,7.10
2022-12-22T06:39:42.752Z,7.10
2022-12-22T06:42:10.344Z,7.10
2022-12-22T06:44:37.023Z,7.10
2022-12-22T06:47:03.714Z,7.00
2022-12-22T06:49:30.452Z,7.00
2022-12-22T06:51:57.190Z,6.90
2022-12-22T06:54:26.287Z,6.90
2022-12-22T06:56:53.356Z,6.90
2022-12-22T06:59:20.079Z,6.90
2022-12-22T07:01:46.905Z,6.80
2022-12-22T07:04:13.753Z,6.80
2022-12-22T07:06:40.503Z,6.80
2022-12-22T07:09:07.196Z,6.70
2022-12-22T07:11:33.875Z,6.70
2022-12-22T07:14:00.571Z,6.70
2022-12-22T07:16:27.339Z,6.70
2022-12-22T07:18:54.095Z,6.70
2022-12-22T07:21:20.779Z,6.60
2022-12-22T07:23:47.478Z,6.70
2022-12-22T07:26:16.217Z,6.70
2022-12-22T07:28:43.031Z,6.70
2022-12-22T07:31:10.414Z,6.70
2022-12-22T07:33:37.229Z,6.70
2022-12-22T07:36:15.068Z,6.80
2022-12-22T07:38:43.011Z,6.80
2022-12-22T07:41:10.509Z,6.90
2022-12-22T07:43:37.200Z,6.90
2022-12-22T07:46:06.497Z,6.90
2022-12-22T07:48:33.219Z,7.00
2022-12-22T07:51:02.398Z,7.00
2022-12-22T07:53:29.112Z,7.10
2022-12-22T07:55:55.851Z,7.20
2022-12-22T07:58:22.600Z,7.20
2022-12-22T08:00:49.281Z,7.20
2022-12-22T08:03:16.096Z,7.30
2022-12-22T08:05:42.883Z,7.40
2022-12-22T08:08:09.604Z,7.40
2022-12-22T08:10:36.293Z,7.50
2022-12-22T08:13:03.055Z,7.50
2022-12-22T08:15:29.783Z,7.50
2022-12-22T08:17:56.934Z,7.60
2022-12-22T08:20:23.629Z,7.60
2022-12-22T08:22:50.340Z,7.70
2022-12-22T08:25:17.557Z,7.70
2022-12-22T08:27:51.876Z,7.80
2022-12-22T08:30:18.632Z,7.80
2022-12-22T08:32:47.376Z,7.90
2022-12-22T08:35:14.192Z,7.90
2022-12-22T08:37:42.069Z,8.00
2022-12-22T08:40:13.533Z,8.00
2022-12-22T08:42:40.313Z,8.10
2022-12-22T08:45:07.434Z,8.10
2022-12-22T08:47:34.203Z,8.20
2022-12-22T08:50:00.988Z,8.20
2022-12-22T08:52:27.699Z,8.30
2022-12-22T08:54:54.417Z,8.30
2022-12-22T08:57:21.110Z,8.40
2022-12-22T08:59:47.829Z,8.40
2022-12-22T09:02:14.702Z,8.50
2022-12-22T09:04:41.516Z,8.60
2022-12-22T09:07:08.221Z,8.60
2022-12-22T09:09:35.185Z,8.70
2022-12-22T09:12:02.080Z,8.80
2022-12-22T09:14:29.029Z,8.80
2022-12-22T09:16:55.912Z,8.90
2022-12-22T09:19:22.650Z,8.90
2022-12-22T09:21:49.398Z,9.00
2022-12-22T09:24:16.249Z,9.00
2022-12-22T09:26:43.068Z,9.10
2022-12-22T09:29:09.766Z,9.10
2022-12-22T09:31:36.571Z,9.20
2022-12-22T09:34:03.346Z,9.20
2022-12-22T09:36:30.854Z,9.20
2022-12-22T09:38:57.674Z,9.30
2022-12-22T09:41:35.564Z,9.30
2022-12-22T09:44:06.701Z,9.40
2022-12-22T09:46:35.325Z,9.40
2022-12-22T09:49:02.191Z,9.40
2022-12-22T09:51:28.907Z,9.40
2022-12-22T09:53:59.257Z,9.50
2022-12-22T09:56:26.692Z,9.50
2022-12-22T09:58:53.434Z,9.60
2022-12-22T10:01:52.578Z,9.60
2022-12-22T10:04:28.218Z,9.70
2022-12-22T10:07:21.265Z,9.70
2022-12-22T10:09:50.701Z,9.70
2022-12-22T10:12:19.880Z,9.80
2022-12-22T10:14:47.984Z,9.80
2022-12-22T10:17:19.496Z,9.80
2022-12-22T10:19:46.614Z,9.80
2022-12-22T10:22:27.582Z,9.90
2022-12-22T10:24:55.125Z,9.90
2022-12-22T10:27:28.714Z,10.00
2022-12-22T10:30:16.326Z,10.00
2022-12-22T10:32:43.256Z,10.00
2022-12-22T10:35:09.995Z,10.10
2022-12-22T10:37:37.528Z,10.10
2022-12-22T10:40:22.627Z,10.10
2022-12-22T10:42:55.722Z,10.20
2022-12-22T10:45:24.299Z,10.20
2022-12-22T10:47:52.385Z,10.20
2022-12-22T10:50:19.369Z,10.30
2022-12-22T10:52:58.586Z,10.40
2022-12-22T10:55:27.252Z,10.50
2022-12-22T10:58:09.005Z,10.50
2022-12-22T11:00:36.074Z,10.50
2022-12-22T11:03:03.290Z,10.50
2022-12-22T11:05:30.231Z,10.50
2022-12-22T11:07:57.061Z,10.60
2022-12-22T11:10:40.288Z,10.60
2022-12-22T11:13:10.141Z,10.60
2022-12-22T11:15:43.749Z,10.70
2022-12-22T11:18:28.480Z,10.70
2022-12-22T11:20:59.229Z,10.70
2022-12-22T11:24:08.115Z,10.80
2022-12-22T11:26:54.825Z,10.90
2022-12-22T11:29:29.059Z,10.90
2022-12-22T11:32:22.691Z,10.90
2022-12-22T11:35:03.062Z,11.00
2022-12-22T11:37:50.696Z,11.00
2022-12-22T11:40:39.480Z,11.00
2022-12-22T11:43:23.544Z,11.10
2022-12-22T11:46:02.394Z,11.00
2022-12-22T11:48:29.186Z,11.10
2022-12-22T11:51:01.617Z,11.10
2022-12-22T11:54:08.697Z,11.10
2022-12-22T11:56:59.661Z,11.10
2022-12-22T11:59:35.499Z,11.20
2022-12-22T12:02:34.586Z,11.20
2022-12-22T12:05:30.515Z,11.20
2022-12-22T12:08:38.985Z,11.20
2022-12-22T12:11:14.890Z,11.20
2022-12-22T12:14:10.960Z,11.30
2022-12-22T12:17:00.235Z,11.30
2022-12-22T12:19:32.830Z,11.40
2022-12-22T12:22:01.827Z,11.40
2022-12-22T12:24:43.025Z,11.50
2022-12-22T12:27:41.792Z,11.50
2022-12-22T12:33:15.072Z,11.50
2022-12-22T12:35:54.039Z,11.50
2022-12-22T12:41:38.005Z,11.50
2022-12-22T12:44:04.950Z,11.50
2022-12-22T12:46:56.325Z,11.50
2022-12-22T12:49:38.439Z,11.50
2022-12-22T12:52:08.824Z,11.50
2022-12-22T12:54:41.751Z,11.60
2022-12-22T12:57:14.433Z,11.60
2022-12-22T12:59:45.722Z,11.60
2022-12-22T13:02:32.344Z,11.60
2022-12-22T13:05:12.729Z,11.70
2022-12-22T13:08:17.442Z,11.60
2022-12-22T13:10:48.113Z,11.60
2022-12-22T13:13:24.119Z,11.60
2022-12-22T13:16:00.115Z,11.60
2022-12-22T13:18:27.159Z,11.50
2022-12-22T13:24:22.906Z,11.60
2022-12-22T13:26:41.934Z,11.60
2022-12-22T13:29:22.943Z,11.60
2022-12-22T13:31:59.409Z,11.50
2022-12-22T13:35:20.578Z,11.60
2022-12-22T13:37:40.360Z,11.60
2022-12-22T13:40:13.576Z,11.60
2022-12-22T13:42:50.578Z,11.50
2022-12-22T13:45:37.056Z,11.50
2022-12-22T13:48:28.686Z,11.50
2022-12-22T13:51:00.483Z,11.50
2022-12-22T13:54:06.903Z,11.60
2022-12-22T13:56:39.581Z,11.60
2022-12-22T13:59:11.983Z,11.60
2022-12-22T14:01:49.217Z,11.60
2022-12-22T14:04:16.140Z,11.50
2022-12-22T14:06:42.941Z,11.50
2022-12-22T14:09:17.226Z,11.50
2022-12-22T14:12:05.048Z,11.50
2022-12-22T14:14:38.233Z,11.50
2022-12-22T14:17:05.106Z,11.50
2022-12-22T14:19:33.897Z,11.50
2022-12-22T14:22:07.033Z,11.50
2022-12-22T14:24:38.408Z,11.50
2022-12-22T14:27:06.000Z,11.50
2022-12-22T14:29:32.724Z,11.50
2022-12-22T14:32:01.106Z,11.50
2022-12-22T14:34:29.907Z,11.50
2022-12-22T14:36:59.100Z,11.50
2022-12-22T14:39:27.896Z,11.50
2022-12-22T14:41:56.610Z,11.50
2022-12-22T14:44:26.922Z,11.40
2022-12-22T14:47:02.721Z,11.50
2022-12-22T14:49:29.607Z,11.40
2022-12-22T14:52:01.013Z,11.40
2022-12-22T14:54:28.272Z,11.40
2022-12-22T14:57:00.262Z,11.40
2022-12-22T14:59:28.509Z,11.40
2022-12-22T15:02:18.877Z,11.40
2022-12-22T15:04:45.936Z,11.40
2022-12-22T15:08:03.400Z,11.40
2022-12-22T15:10:17.811Z,11.40
2022-12-22T15:12:45.227Z,11.40
2022-12-22T15:15:19.437Z,11.40
2022-12-22T15:17:51.655Z,11.40
2022-12-22T15:20:23.185Z,11.40
2022-12-22T15:22:50.210Z,11.40
2022-12-22T15:25:21.789Z,11.40
2022-12-22T15:27:48.779Z,11.40
2022-12-22T15:30:17.573Z,11.40
2022-12-22T15:32:44.354Z,11.40
2022-12-22T15:35:30.737Z,11.40
2022-12-22T15:37:57.679Z,11.40
2022-12-22T15:40:24.879Z,11.30
2022-12-22T15:42:51.698Z,11.30
2022-12-22T15:45:19.002Z,11.30
2022-12-22T15:47:48.315Z,11.30
2022-12-22T15:50:29.290Z,11.30
2022-12-22T15:52:57.891Z,11.30
2022-12-22T15:55:24.700Z,11.20
2022-12-22T15:57:52.815Z,11.30
2022-12-22T16:00:20.146Z,11.20
2022-12-22T16:02:47.298Z,11.20
2022-12-22T16:05:14.467Z,11.20
2022-12-22T16:07:41.526Z,11.10
2022-12-22T16:10:18.378Z,11.10
2022-12-22T16:12:45.221Z,11.10
2022-12-22T16:15:13.683Z,11.10
2022-12-22T16:17:40.417Z,11.10
2022-12-22T16:20:07.711Z,11.10
2022-12-22T16:22:34.638Z,11.00
2022-12-22T16:25:01.525Z,11.00
2022-12-22T16:27:28.323Z,11.00
2022-12-22T16:29:55.088Z,11.00
2022-12-22T16:32:29.787Z,11.00
2022-12-22T16:35:12.598Z,11.00
2022-12-22T16:37:39.318Z,11.00
2022-12-22T16:40:06.682Z,11.00
2022-12-22T16:45:24.538Z,11.10
2022-12-22T16:47:52.306Z,11.00
2022-12-22T16:50:21.198Z,11.10
2022-12-22T16:52:48.195Z,11.10
2022-12-22T16:55:19.902Z,11.10
2022-12-22T16:57:46.705Z,11.10
2022-12-22T17:00:19.260Z,11.10
2022-12-22T17:02:47.639Z,11.10
2022-12-22T17:05:29.618Z,11.10
2022-12-22T17:07:56.557Z,11.10
2022-12-22T17:10:23.502Z,11.10
2022-12-22T17:12:50.624Z,11.10
2022-12-22T17:15:18.777Z,11.10
2022-12-22T17:17:45.624Z,11.10
2022-12-22T17:20:20.197Z,11.10
2022-12-22T17:22:55.264Z,11.10
2022-12-22T17:25:24.034Z,11.10
2022-12-22T17:27:50.771Z,11.10
2022-12-22T17:30:19.139Z,11.10
2022-12-22T17:32:46.222Z,11.10
2022-12-22T17:35:14.391Z,11.10
2022-12-22T17:37:41.339Z,11.10
2022-12-22T17:40:11.296Z,11.10
2022-12-22T17:42:38.052Z,11.10
2022-12-22T17:45:06.468Z,11.00
2022-12-22T17:47:40.453Z,11.10
2022-12-22T17:50:15.619Z,11.00
2022-12-22T17:52:42.524Z,11.10
2022-12-22T17:56:05.915Z,11.10
2022-12-22T17:58:15.727Z,11.10
2022-12-22T18:00:42.490Z,11.10
2022-12-22T18:03:13.223Z,11.00
2022-12-22T18:05:42.218Z,11.00
2022-12-22T18:08:12.869Z,11.00
2022-12-22T18:10:39.684Z,11.10
2022-12-22T18:13:13.877Z,11.00
2022-12-22T18:15:40.542Z,11.10
2022-12-22T18:18:14.347Z,11.00
2022-12-22T18:20:41.274Z,11.00
2022-12-22T18:23:16.797Z,11.00
2022-12-22T18:25:43.534Z,11.00
2022-12-22T18:28:13.756Z,11.00
2022-12-22T18:30:40.529Z,11.00
2022-12-22T18:33:07.251Z,11.00
2022-12-22T18:35:34.054Z,11.00
2022-12-22T18:38:00.755Z,11.00
2022-12-22T18:40:34.099Z,11.00
2022-12-22T18:43:00.951Z,11.00
2022-12-22T18:45:28.963Z,11.00
2022-12-22T18:47:55.894Z,11.00
2022-12-22T18:50:24.404Z,11.00
2022-12-22T18:52:51.271Z,11.00
2022-12-22T18:55:25.418Z,11.00
2022-12-22T18:57:52.894Z,10.90
2022-12-22T19:00:21.752Z,10.90
2022-12-22T19:02:49.491Z,10.90
2022-12-22T19:05:21.291Z,10.90
2022-12-22T19:07:48.424Z,10.90
2022-12-22T19:10:19.973Z,10.90
2022-12-22T19:12:47.993Z,10.90
2022-12-22T19:15:28.338Z,10.90
2022-12-22T19:17:55.091Z,11.00
2022-12-22T19:20:22.529Z,10.90
2022-12-22T19:22:49.682Z,10.90
2022-12-22T19:25:18.085Z,10.90
2022-12-22T19:27:44.885Z,10.90
2022-12-22T19:30:16.827Z,10.90
2022-12-22T19:32:45.089Z,11.00
2022-12-22T19:35:16.566Z,11.00
2022-12-22T19:37:43.490Z,11.00
2022-12-22T19:40:11.335Z,11.00
2022-12-22T19:42:38.090Z,11.00
2022-12-22T19:45:10.755Z,11.00
2022-12-22T19:47:39.831Z,11.00
2022-12-22T19:50:28.476Z,11.00
2022-12-22T19:52:55.892Z,11.10
2022-12-22T19:55:22.571Z,11.10
2022-12-22T19:57:50.434Z,11.10
2022-12-22T20:00:21.848Z,11.10
2022-12-22T20:02:49.929Z,11.10
2022-12-22T20:05:22.997Z,11.00
2022-12-22T20:07:50.438Z,11.10
2022-12-22T20:10:17.260Z,11.10
2022-12-22T20:12:44.016Z,11.10
2022-12-22T20:15:25.464Z,11.10
2022-12-22T20:17:52.951Z,11.10
2022-12-22T20:20:21.440Z,11.10
2022-12-22T20:22:55.413Z,11.10
2022-12-22T20:25:23.906Z,11.10
2022-12-22T20:27:51.014Z,11.10
2022-12-22T20:30:20.920Z,11.10
2022-12-22T20:32:47.797Z,11.10
2022-12-22T20:35:14.552Z,11.10
2022-12-22T20:37:41.275Z,11.10
2022-12-22T20:40:21.520Z,11.10
2022-12-22T20:42:48.572Z,11.10
2022-12-22T20:45:18.253Z,11.10
2022-12-22T20:47:45.051Z,11.10
2022-12-22T20:50:21.943Z,11.10
2022-12-22T20:52:48.751Z,11.10
2022-12-22T20:55:16.597Z,11.10
2022-12-22T20:57:44.430Z,11.10
2022-12-22T21:00:25.801Z,11.10
2022-12-22T21:02:52.816Z,11.20
2022-12-22T21:05:19.733Z,11.10
2022-12-22T21:07:47.348Z,11.10
2022-12-22T21:10:24.088Z,11.10
2022-12-22T21:12:50.799Z,11.10
2022-12-22T21:15:22.343Z,11.20
2022-12-22T21:17:55.961Z,11.10
2022-12-22T21:20:26.666Z,11.10
2022-12-22T21:22:53.364Z,11.10
2022-12-22T21:25:20.101Z,11.10
2022-12-22T21:27:47.891Z,11.10
2022-12-22T21:30:22.234Z,11.10
2022-12-22T21:32:49.069Z,11.10
2022-12-22T21:35:21.485Z,11.10
2022-12-22T21:37:48.624Z,11.10
2022-12-22T21:40:18.448Z,11.10
2022-12-22T21:42:45.141Z,11.10
2022-12-22T21:45:13.344Z,11.10
2022-12-22T21:47:40.033Z,11.10
2022-12-22T21:50:14.040Z,11.10
2022-12-22T21:52:40.813Z,11.10
2022-12-22T21:55:07.763Z,11.10
2022-12-22T21:57:34.459Z,11.10
2022-12-22T22:00:01.279Z,11.10
2022-12-22T22:02:28.110Z,11.10
2022-12-22T22:04:55.501Z,11.10
2022-12-22T22:07:22.641Z,11.10
2022-12-22T22:09:49.357Z,11.10
2022-12-22T22:12:16.101Z,11.10
2022-12-22T22:14:43.048Z,11.10
2022-12-22T22:17:11.299Z,11.10
2022-12-22T22:19:38.044Z,11.10
2022-12-22T22:22:04.743Z,11.10
2022-12-22T22:24:31.665Z,11.10
2022-12-22T22:26:58.674Z,11.00
2022-12-22T22:29:25.392Z,11.00
2022-12-22T22:31:52.105Z,11.00
2022-12-22T22:34:18.832Z,11.00
2022-12-22T22:36:45.602Z,11.00
2022-12-22T22:39:12.320Z,11.00
2022-12-22T22:41:43.303Z,11.00
2022-12-22T22:44:10.857Z,11.00
2022-12-22T22:46:37.680Z,11.00
2022-12-22T22:49:04.457Z,11.00
2022-12-22T22:51:31.183Z,11.00
2022-12-22T22:53:58.180Z,11.00
2022-12-22T22:56:24.901Z,11.00
2022-12-22T22:58:52.953Z,11.00
2022-12-22T23:01:19.739Z,11.00
2022-12-22T23:03:46.535Z,11.00
2022-12-22T23:06:13.495Z,11.00
2022-12-22T23:08:40.242Z,11.00
2022-12-22T23:11:10.391Z,11.00
2022-12-22T23:13:37.105Z,11.00
2022-12-22T23:16:04.268Z,11.00
2022-12-22T23:18:39.755Z,11.00
2022-12-22T23:21:10.685Z,11.00
2022-12-22T23:23:39.252Z,11.00
2022-12-22T23:26:06.728Z,11.00
2022-12-22T23:28:33.930Z,11.00
2022-12-22T23:31:00.694Z,11.00
2022-12-22T23:33:27.433Z,11.00
2022-12-22T23:35:54.103Z,11.00
2022-12-22T23:38:20.964Z,11.00
2022-12-22T23:40:52.874Z,11.00
2022-12-22T23:43:20.066Z,11.00
2022-12-22T23:45:46.879Z,11.00
2022-12-22T23:48:13.576Z,11.00
2022-12-22T23:50:40.316Z,11.00
2022-12-22T23:53:07.065Z,11.00
2022-12-22T23:55:33.754Z,11.00
2022-12-22T23:58:00.546Z,11.00
